Time;durP1;ratioP1;P1;durP2;ratioP2;P2;SDS_P1;SDS_P2;PMS_P1;PMS_P2;Temp;Humidity;BMP_temperature;BMP_pressure;BME280_temperature;BME280_humidity;BME280_pressure;Samples;Min_cycle;Max_cycle;Signal;HPM_P1;HPM_P2
2023/04/21 00:02:24;;;;;;;23.97;19.60;;;9.30;1.00;;;;;;5048504;28;20192;-61
2023/04/21 00:04:50;;;;;;;23.83;18.10;;;9.30;1.00;;;;;;5056547;28;20203;-61
2023/04/21 00:07:16;;;;;;;24.63;19.40;;;9.30;1.00;;;;;;5071607;28;20490;-62
2023/04/21 00:09:41;;;;;;;22.47;16.43;;;9.20;1.00;;;;;;5047634;28;20856;-62
2023/04/21 00:12:08;;;;;;;23.47;18.60;;;9.10;1.00;;;;;;5049604;28;20242;-61
2023/04/21 00:14:33;;;;;;;25.53;18.07;;;9.10;1.00;;;;;;5050832;28;20248;-59
2023/04/21 00:16:59;;;;;;;22.53;18.20;;;9.10;1.00;;;;;;5051347;28;20461;-60
2023/04/21 00:19:25;;;;;;;24.83;19.50;;;9.00;1.00;;;;;;5050375;28;20234;-62
2023/04/21 00:21:51;;;;;;;28.40;21.23;;;8.90;1.00;;;;;;5049771;28;20719;-61
2023/04/21 00:24:17;;;;;;;28.90;20.63;;;8.90;1.00;;;;;;5055352;28;20447;-61
2023/04/21 00:26:42;;;;;;;30.27;20.00;;;9.00;1.00;;;;;;5049908;28;20729;-61
2023/04/21 00:29:08;;;;;;;24.50;21.27;;;8.80;1.00;;;;;;5044896;28;20283;-61
2023/04/21 00:31:33;;;;;;;28.97;21.50;;;8.80;1.00;;;;;;5049309;28;20193;-61
2023/04/21 00:33:59;;;;;;;32.50;23.57;;;8.70;1.00;;;;;;5046974;28;20214;-62
2023/04/21 00:36:27;;;;;;;33.53;23.33;;;8.70;1.00;;;;;;5063444;28;20241;-62
2023/04/21 00:38:52;;;;;;;28.77;21.17;;;8.80;1.00;;;;;;5045448;28;20201;-61
2023/04/21 00:41:18;;;;;;;31.07;20.97;;;8.80;1.00;;;;;;5046369;28;20451;-61
2023/04/21 00:44:00;;;;;;;31.50;23.87;;;8.80;1.00;;;;;;5046783;28;20446;-61
2023/04/21 00:46:26;;;;;;;27.00;21.17;;;8.80;1.00;;;;;;5040670;28;20192;-61
2023/04/21 00:48:51;;;;;;;27.70;20.90;;;8.80;1.00;;;;;;5043248;28;20446;-62
2023/04/21 00:51:18;;;;;;;26.20;22.87;;;8.80;1.00;;;;;;5043116;28;20830;-61
2023/04/21 00:53:43;;;;;;;28.00;20.87;;;8.90;1.00;;;;;;5044579;28;20220;-60
2023/04/21 00:56:10;;;;;;;26.33;20.80;;;8.90;1.00;;;;;;5048063;28;20479;-61
2023/04/21 00:58:37;;;;;;;30.23;21.00;;;8.80;1.00;;;;;;5046398;28;20189;-61
2023/04/21 01:01:04;;;;;;;26.77;22.10;;;8.90;1.00;;;;;;5044096;28;20572;-62
2023/04/21 01:03:30;;;;;;;26.40;22.47;;;8.80;1.00;;;;;;5043407;28;20446;-60
2023/04/21 01:05:56;;;;;;;28.90;19.97;;;8.80;1.00;;;;;;5047932;28;20529;-62
2023/04/21 01:08:21;;;;;;;27.67;21.43;;;8.70;1.00;;;;;;5045424;28;20443;-61
2023/04/21 01:10:47;;;;;;;24.30;19.57;;;8.70;1.00;;;;;;5045358;28;20492;-60
2023/04/21 01:13:13;;;;;;;25.40;19.33;;;8.70;1.00;;;;;;5041956;28;20208;-61
2023/04/21 01:15:38;;;;;;;25.80;19.20;;;8.60;1.00;;;;;;5041134;28;20213;-61
2023/04/21 01:18:04;;;;;;;23.20;19.30;;;8.60;1.00;;;;;;5043684;28;20182;-61
2023/04/21 01:20:30;;;;;;;28.53;20.40;;;8.50;1.00;;;;;;5042596;28;20192;-61
2023/04/21 01:22:55;;;;;;;27.83;20.73;;;8.50;1.00;;;;;;5046719;28;20180;-61
2023/04/21 01:25:24;;;;;;;30.43;21.33;;;8.50;1.00;;;;;;5050599;28;20685;-60
2023/04/21 01:27:51;;;;;;;26.60;20.60;;;8.50;1.00;;;;;;5041883;28;20314;-60
2023/04/21 01:30:16;;;;;;;26.83;21.63;;;8.40;1.00;;;;;;5045792;28;21012;-61
2023/04/21 01:32:42;;;;;;;25.60;20.73;;;8.40;1.00;;;;;;5047983;28;20447;-61
2023/04/21 01:35:08;;;;;;;28.00;19.93;;;8.40;1.00;;;;;;5043677;28;20204;-61
2023/04/21 01:37:34;;;;;;;28.00;19.77;;;8.30;1.00;;;;;;5047979;28;20809;-61
2023/04/21 01:40:07;;;;;;;27.03;21.77;;;8.20;1.00;;;;;;5043618;28;20460;-60
2023/04/21 01:42:35;;;;;;;29.23;21.77;;;8.30;1.00;;;;;;5046253;28;20696;-61
2023/04/21 01:45:02;;;;;;;34.50;20.63;;;8.20;1.00;;;;;;5043320;28;20447;-60
2023/04/21 01:47:27;;;;;;;33.53;23.80;;;8.20;1.00;;;;;;5037899;28;20455;-60
2023/04/21 01:49:53;;;;;;;29.73;23.03;;;8.30;1.00;;;;;;5039786;28;20458;-60
2023/04/21 01:52:19;;;;;;;33.90;21.80;;;8.30;1.00;;;;;;5053484;28;20194;-60
2023/04/21 01:54:44;;;;;;;30.23;21.87;;;8.30;1.00;;;;;;5041865;28;20232;-60
2023/04/21 01:57:10;;;;;;;30.53;22.90;;;8.30;1.00;;;;;;5043114;28;20192;-61
2023/04/21 01:59:36;;;;;;;29.07;22.20;;;8.20;1.00;;;;;;5041765;28;20188;-61
2023/04/21 02:02:02;;;;;;;26.67;21.47;;;8.20;1.00;;;;;;5045008;28;20542;-60
2023/04/21 02:04:28;;;;;;;25.73;21.93;;;8.30;1.00;;;;;;5040560;28;20344;-60
2023/04/21 02:06:53;;;;;;;26.33;20.80;;;8.20;1.00;;;;;;5044816;28;20815;-60
2023/04/21 02:09:19;;;;;;;27.67;21.13;;;8.10;1.00;;;;;;5042198;28;20185;-60
2023/04/21 02:11:44;;;;;;;28.93;22.23;;;8.10;1.00;;;;;;5046074;28;20270;-61
2023/04/21 02:14:10;;;;;;;28.50;21.30;;;8.20;1.00;;;;;;5042153;28;20232;-62
2023/04/21 02:16:36;;;;;;;23.93;20.47;;;8.20;1.00;;;;;;5045947;28;20185;-61
2023/04/21 02:19:04;;;;;;;25.03;20.63;;;8.20;1.00;;;;;;5040812;28;20214;-60
2023/04/21 02:21:31;;;;;;;27.53;20.27;;;8.20;1.00;;;;;;5039097;28;20563;-60
2023/04/21 02:23:57;;;;;;;23.03;20.00;;;8.20;1.00;;;;;;5041786;28;20443;-60
2023/04/21 02:26:22;;;;;;;29.77;21.07;;;8.10;1.00;;;;;;5045312;28;20458;-61
2023/04/21 02:28:49;;;;;;;25.90;20.57;;;8.00;1.00;;;;;;5045545;28;20447;-61
2023/04/21 02:31:15;;;;;;;26.37;20.00;;;8.00;1.00;;;;;;5042197;28;20528;-61
2023/04/21 02:33:41;;;;;;;27.37;21.27;;;8.10;1.00;;;;;;5041790;28;20505;-60
2023/04/21 02:36:06;;;;;;;27.90;20.83;;;8.00;1.00;;;;;;5035697;28;22075;-61
2023/04/21 02:38:32;;;;;;;29.13;21.70;;;8.10;1.00;;;;;;5039705;28;20903;-62
2023/04/21 02:40:58;;;;;;;27.03;20.77;;;8.10;1.00;;;;;;5046916;28;20192;-62
2023/04/21 02:43:23;;;;;;;23.23;19.67;;;8.10;1.00;;;;;;5043585;28;20192;-61
2023/04/21 02:45:49;;;;;;;28.03;20.83;;;8.00;1.00;;;;;;5042365;28;20196;-60
2023/04/21 02:48:19;;;;;;;25.97;20.07;;;8.00;1.00;;;;;;5045146;28;20192;-61
2023/04/21 02:50:45;;;;;;;27.80;20.60;;;7.80;1.00;;;;;;5038621;28;20193;-60
2023/04/21 02:53:11;;;;;;;25.57;21.20;;;7.80;1.00;;;;;;5039226;28;20472;-61
2023/04/21 02:55:36;;;;;;;29.30;20.23;;;7.80;1.00;;;;;;5040804;28;20482;-60
2023/04/21 02:58:02;;;;;;;25.27;19.63;;;7.80;1.00;;;;;;5045969;28;20185;-62
2023/04/21 03:00:28;;;;;;;27.03;20.13;;;7.80;1.00;;;;;;5047122;28;20185;-60
2023/04/21 03:02:53;;;;;;;22.73;19.20;;;7.80;1.00;;;;;;5045733;28;20190;-60
2023/04/21 03:05:19;;;;;;;23.40;19.90;;;7.70;1.00;;;;;;5047920;28;20234;-62
2023/04/21 03:07:45;;;;;;;22.87;18.97;;;7.80;1.00;;;;;;5046300;28;20207;-60
2023/04/21 03:10:11;;;;;;;22.60;19.23;;;7.80;1.00;;;;;;5043686;28;20442;-60
2023/04/21 03:12:37;;;;;;;25.60;18.50;;;7.80;1.00;;;;;;5048765;28;20189;-61
2023/04/21 03:15:03;;;;;;;25.87;19.00;;;7.70;1.00;;;;;;5048350;28;20479;-59
2023/04/21 03:17:29;;;;;;;25.73;19.40;;;7.70;1.00;;;;;;5049787;28;20271;-60
2023/04/21 03:19:54;;;;;;;27.67;19.60;;;7.70;1.00;;;;;;5040820;28;20905;-61
2023/04/21 03:22:20;;;;;;;22.07;18.47;;;7.70;1.00;;;;;;5047828;28;20684;-61
2023/04/21 03:24:46;;;;;;;25.33;20.27;;;7.70;1.00;;;;;;5046402;28;20231;-59
2023/04/21 03:27:11;;;;;;;31.20;18.80;;;7.70;1.00;;;;;;5047688;28;20250;-60
2023/04/21 03:29:37;;;;;;;20.87;18.63;;;7.60;1.00;;;;;;5050089;28;20195;-60
2023/04/21 03:32:02;;;;;;;23.67;19.83;;;7.60;1.00;;;;;;5047684;28;20193;-59
2023/04/21 03:34:28;;;;;;;21.80;18.40;;;7.60;1.00;;;;;;5044100;28;20219;-61
2023/04/21 03:36:54;;;;;;;21.60;19.20;;;7.60;1.00;;;;;;5047765;28;20199;-61
2023/04/21 03:39:20;;;;;;;22.20;17.67;;;7.50;1.00;;;;;;5045457;28;20188;-60
2023/04/21 03:41:46;;;;;;;21.17;18.07;;;7.50;1.00;;;;;;5047957;28;20458;-62
2023/04/21 03:44:12;;;;;;;22.00;16.93;;;7.50;1.00;;;;;;5049046;28;21846;-59
2023/04/21 03:46:38;;;;;;;18.40;16.30;;;7.40;1.00;;;;;;5049240;28;20458;-61
2023/04/21 03:49:03;;;;;;;18.93;16.80;;;7.40;1.00;;;;;;5043766;28;20207;-60
2023/04/21 03:51:31;;;;;;;20.10;17.17;;;7.30;1.00;;;;;;5043314;28;20193;-61
2023/04/21 03:53:57;;;;;;;20.03;16.80;;;7.30;1.00;;;;;;5047859;28;20215;-61
2023/04/21 03:56:22;;;;;;;20.93;17.30;;;7.30;1.00;;;;;;5047594;28;20967;-61
2023/04/21 03:58:48;;;;;;;23.50;17.50;;;7.30;1.00;;;;;;5043024;28;20617;-61
2023/04/21 04:01:14;;;;;;;21.00;16.83;;;7.30;1.00;;;;;;5047025;28;20180;-61
2023/04/21 04:03:40;;;;;;;22.30;17.60;;;7.30;1.00;;;;;;5044387;28;20975;-61
2023/04/21 04:06:06;;;;;;;21.07;17.37;;;7.30;1.00;;;;;;5045268;28;20538;-60
2023/04/21 04:08:31;;;;;;;21.40;17.33;;;7.30;1.00;;;;;;5046182;28;20204;-60
2023/04/21 04:10:57;;;;;;;23.90;17.70;;;7.40;1.00;;;;;;5045870;28;20198;-61
2023/04/21 04:13:25;;;;;;;25.27;19.20;;;7.30;1.00;;;;;;5045298;28;20219;-59
2023/04/21 04:15:51;;;;;;;24.93;18.63;;;7.40;1.00;;;;;;5046405;28;20192;-58
2023/04/21 04:18:16;;;;;;;22.47;16.77;;;7.40;1.00;;;;;;5047398;28;20447;-57
2023/04/21 04:20:42;;;;;;;23.53;17.37;;;7.40;1.00;;;;;;5049043;28;20549;-57
2023/04/21 04:23:07;;;;;;;21.73;18.30;;;7.40;1.00;;;;;;5044275;28;20444;-59
2023/04/21 04:25:33;;;;;;;23.30;17.70;;;7.30;1.00;;;;;;5048074;28;20196;-57
2023/04/21 04:27:59;;;;;;;19.23;17.07;;;7.30;1.00;;;;;;5044601;28;20181;-57
2023/04/21 04:30:27;;;;;;;23.93;17.57;;;7.40;1.00;;;;;;5050199;28;20539;-59
2023/04/21 04:32:53;;;;;;;21.30;16.70;;;7.50;1.00;;;;;;5046847;28;20449;-59
2023/04/21 04:35:18;;;;;;;21.57;16.10;;;7.50;1.00;;;;;;5048842;28;20561;-58
2023/04/21 04:37:44;;;;;;;23.70;18.10;;;7.50;1.00;;;;;;5045321;28;20224;-59
2023/04/21 04:40:13;;;;;;;21.50;17.57;;;7.60;1.00;;;;;;5048733;28;20224;-59
2023/04/21 04:42:39;;;;;;;23.50;18.43;;;7.60;1.00;;;;;;5040577;28;20195;-60
2023/04/21 04:45:07;;;;;;;19.93;16.53;;;7.60;1.00;;;;;;5042315;28;20464;-60
2023/04/21 04:47:36;;;;;;;20.90;15.00;;;7.60;1.00;;;;;;5041890;28;20195;-59
2023/04/21 04:50:02;;;;;;;18.13;16.00;;;7.70;1.00;;;;;;5043149;28;20455;-59
2023/04/21 04:52:28;;;;;;;20.50;17.10;;;7.70;1.00;;;;;;5044688;28;21084;-59
2023/04/21 04:54:53;;;;;;;20.60;15.70;;;7.70;1.00;;;;;;5043664;28;20578;-59
2023/04/21 04:57:19;;;;;;;19.33;16.00;;;7.80;1.00;;;;;;5046718;28;20646;-59
2023/04/21 04:59:45;;;;;;;18.47;16.27;;;7.90;1.00;;;;;;5055283;28;20191;-58
2023/04/21 05:02:11;;;;;;;19.40;16.50;;;7.90;1.00;;;;;;5047302;28;20184;-59
2023/04/21 05:04:37;;;;;;;18.00;15.07;;;8.00;1.00;;;;;;5046678;28;20430;-59
2023/04/21 05:07:05;;;;;;;21.10;17.07;;;8.10;1.00;;;;;;5047500;28;20466;-58
2023/04/21 05:09:30;;;;;;;19.00;16.80;;;8.20;1.00;;;;;;5041257;28;20425;-59
2023/04/21 05:11:56;;;;;;;20.97;16.30;;;8.20;1.00;;;;;;5042176;28;20478;-58
2023/04/21 05:14:21;;;;;;;24.97;16.80;;;8.20;1.00;;;;;;5045956;28;20247;-59
2023/04/21 05:16:47;;;;;;;19.17;15.13;;;8.30;1.00;;;;;;5041701;28;20187;-59
2023/04/21 05:19:13;;;;;;;19.17;16.33;;;8.30;1.00;;;;;;5047906;28;20263;-58
2023/04/21 05:21:38;;;;;;;21.40;16.90;;;8.40;1.00;;;;;;5048159;28;20187;-58
2023/04/21 05:24:04;;;;;;;25.50;16.00;;;8.60;1.00;;;;;;5046189;28;20193;-61
2023/04/21 05:26:30;;;;;;;17.90;15.40;;;8.70;1.00;;;;;;5041809;28;20200;-59
2023/04/21 05:28:57;;;;;;;20.13;15.53;;;8.70;1.00;;;;;;5049921;28;20718;-59
2023/04/21 05:31:25;;;;;;;17.87;15.50;;;8.80;1.00;;;;;;5047532;28;20455;-59
2023/04/21 05:33:51;;;;;;;19.43;17.27;;;8.90;1.00;;;;;;5046703;28;20500;-58
2023/04/21 05:36:19;;;;;;;19.00;15.97;;;9.00;1.00;;;;;;5040585;28;20461;-59
2023/04/21 05:38:45;;;;;;;21.47;15.93;;;9.10;1.00;;;;;;5045283;28;20421;-58
2023/04/21 05:41:10;;;;;;;19.80;16.70;;;9.20;1.00;;;;;;5044773;28;20439;-59
2023/04/21 05:43:36;;;;;;;19.23;16.20;;;9.20;1.00;;;;;;5044816;28;20446;-59
2023/04/21 05:46:07;;;;;;;18.63;15.07;;;9.30;1.00;;;;;;5042061;28;20214;-57
2023/04/21 05:48:32;;;;;;;18.77;16.33;;;9.50;1.00;;;;;;5045485;28;20196;-58
2023/04/21 05:51:10;;;;;;;20.30;15.30;;;9.50;1.00;;;;;;5043354;28;20599;-59
2023/04/21 05:53:40;;;;;;;19.37;17.10;;;9.60;1.00;;;;;;5037895;28;20299;-59
2023/04/21 05:56:07;;;;;;;17.93;16.13;;;9.80;1.00;;;;;;5040107;28;20556;-59
2023/04/21 05:58:33;;;;;;;20.50;15.97;;;10.00;1.00;;;;;;5044652;28;20487;-59
2023/04/21 06:00:59;;;;;;;18.30;16.20;;;10.10;1.00;;;;;;5040973;28;20489;-58
2023/04/21 06:03:24;;;;;;;19.17;16.23;;;10.20;1.00;;;;;;5046329;28;20189;-59
2023/04/21 06:05:54;;;;;;;18.20;16.30;;;10.30;1.00;;;;;;5046506;28;20723;-60
2023/04/21 06:08:20;;;;;;;20.13;16.27;;;10.50;1.00;;;;;;5037033;28;20733;-61
2023/04/21 06:10:46;;;;;;;19.13;17.00;;;10.50;1.00;;;;;;5045558;28;20422;-60
2023/04/21 06:13:12;;;;;;;21.70;16.40;;;10.60;1.00;;;;;;5045795;28;21006;-59
2023/04/21 06:15:37;;;;;;;19.93;16.40;;;10.80;1.00;;;;;;5043270;28;20196;-58
2023/04/21 06:18:03;;;;;;;21.90;15.83;;;10.90;1.00;;;;;;5041611;28;20185;-59
2023/04/21 06:20:28;;;;;;;18.23;15.60;;;11.00;1.00;;;;;;5043008;28;20560;-59
2023/04/21 06:22:54;;;;;;;18.57;16.13;;;11.10;1.00;;;;;;5047609;28;20203;-59
2023/04/21 06:25:20;;;;;;;18.90;16.90;;;11.20;1.00;;;;;;5041662;28;20666;-59
2023/04/21 06:27:46;;;;;;;23.50;16.70;;;11.30;1.00;;;;;;5044575;28;20192;-59
2023/04/21 06:30:12;;;;;;;25.23;17.10;;;11.50;1.00;;;;;;5044021;28;20199;-58
2023/04/21 06:32:38;;;;;;;18.67;16.40;;;11.50;1.00;;;;;;5045380;28;20971;-56
2023/04/21 06:35:04;;;;;;;16.63;14.57;;;11.60;1.00;;;;;;5040703;28;20475;-57
2023/04/21 06:37:30;;;;;;;20.50;15.87;;;11.70;1.00;;;;;;5042963;28;20911;-57
2023/04/21 06:39:56;;;;;;;21.20;16.30;;;11.80;1.00;;;;;;5041276;28;20453;-55
2023/04/21 06:42:21;;;;;;;17.50;15.00;;;11.90;1.00;;;;;;5044565;28;20245;-56
2023/04/21 06:44:47;;;;;;;19.23;15.97;;;11.90;1.00;;;;;;5045606;28;20184;-57
2023/04/21 06:47:13;;;;;;;23.57;16.63;;;11.90;1.00;;;;;;5043624;28;20302;-58
2023/04/21 06:49:39;;;;;;;16.10;13.47;;;12.10;1.00;;;;;;5042112;28;20246;-57
2023/04/21 06:52:05;;;;;;;17.57;14.30;;;12.20;1.00;;;;;;5045713;28;20538;-57
2023/04/21 06:54:31;;;;;;;19.10;15.77;;;12.40;1.00;;;;;;5042978;28;20211;-57
2023/04/21 06:56:57;;;;;;;20.57;15.63;;;12.50;1.00;;;;;;5041207;28;20460;-57
2023/04/21 06:59:22;;;;;;;24.60;15.60;;;12.70;1.00;;;;;;5046540;28;20555;-57
2023/04/21 07:01:51;;;;;;;20.63;15.33;;;13.00;1.00;;;;;;5045039;28;20189;-58
2023/04/21 07:04:17;;;;;;;17.40;14.23;;;13.20;1.00;;;;;;5040664;28;20279;-56
2023/04/21 07:06:42;;;;;;;16.00;14.27;;;13.30;1.00;;;;;;5045200;28;20475;-56
2023/04/21 07:09:08;;;;;;;17.97;15.20;;;13.50;1.00;;;;;;5039355;28;20421;-57
2023/04/21 07:11:34;;;;;;;26.70;15.87;;;13.60;1.00;;;;;;5046595;28;20188;-58
2023/04/21 07:14:01;;;;;;;22.50;14.53;;;13.80;1.00;;;;;;5042100;28;20208;-57
2023/04/21 07:16:27;;;;;;;19.37;14.20;;;13.90;1.00;;;;;;5038154;28;20264;-57
2023/04/21 07:18:52;;;;;;;19.87;14.50;;;14.10;1.00;;;;;;5042320;28;20450;-58
2023/04/21 07:21:18;;;;;;;18.10;13.47;;;14.20;1.00;;;;;;5040973;28;20442;-57
2023/04/21 07:23:44;;;;;;;20.37;14.23;;;14.40;1.00;;;;;;5047186;28;20712;-56
2023/04/21 07:26:09;;;;;;;15.10;13.50;;;14.60;1.00;;;;;;5045827;28;20197;-59
2023/04/21 07:28:36;;;;;;;19.30;13.67;;;14.60;1.00;;;;;;5041310;28;20737;-56
2023/04/21 07:31:01;;;;;;;15.57;13.97;;;14.80;1.00;;;;;;5047326;28;20195;-57
2023/04/21 07:33:27;;;;;;;25.17;14.20;;;15.00;1.00;;;;;;5042445;28;20538;-57
2023/04/21 07:35:52;;;;;;;15.07;13.57;;;15.00;1.00;;;;;;5042894;28;20741;-57
2023/04/21 07:38:18;;;;;;;19.00;13.10;;;15.20;1.00;;;;;;5047400;28;20670;-56
2023/04/21 07:40:44;;;;;;;17.57;13.13;;;15.40;1.00;;;;;;5039394;28;20670;-57
2023/04/21 07:43:09;;;;;;;18.00;13.13;;;15.60;1.00;;;;;;5045039;28;20419;-57
2023/04/21 07:45:36;;;;;;;23.63;13.77;;;15.80;1.00;;;;;;5042277;28;20184;-57
2023/04/21 07:48:02;;;;;;;14.80;12.97;;;16.00;1.00;;;;;;5047349;28;20176;-57
2023/04/21 07:50:27;;;;;;;21.80;14.00;;;16.10;1.00;;;;;;5046602;28;20839;-57
2023/04/21 07:52:53;;;;;;;15.80;12.37;;;16.20;1.00;;;;;;5047994;28;20178;-57
2023/04/21 07:55:18;;;;;;;16.63;11.93;;;16.20;1.00;;;;;;5043951;28;20244;-57
2023/04/21 07:57:44;;;;;;;13.03;11.00;;;16.30;1.00;;;;;;5051576;28;20241;-58
2023/04/21 08:00:10;;;;;;;14.60;11.10;;;16.50;1.00;;;;;;5051511;28;20207;-57
2023/04/21 08:02:36;;;;;;;15.63;11.13;;;16.60;1.00;;;;;;5051798;28;20605;-57
2023/04/21 08:05:02;;;;;;;15.73;12.50;;;16.70;1.00;;;;;;5051236;28;20439;-57
2023/04/21 08:07:27;;;;;;;17.03;11.90;;;16.80;1.00;;;;;;5050088;28;20394;-58
2023/04/21 08:09:53;;;;;;;16.80;11.83;;;16.90;1.00;;;;;;5046973;28;20279;-57
2023/04/21 08:12:19;;;;;;;13.23;9.53;;;17.10;1.00;;;;;;5051742;28;20257;-57
2023/04/21 08:14:44;;;;;;;13.83;9.33;;;17.40;1.00;;;;;;5050852;28;20208;-56
2023/04/21 08:17:10;;;;;;;19.80;11.43;;;17.50;99.90;;;;;;5051665;28;20603;-58
2023/04/21 08:19:35;;;;;;;10.70;9.70;;;17.70;99.90;;;;;;5049932;28;20673;-58
2023/04/21 08:22:01;;;;;;;12.57;6.97;;;17.80;99.90;;;;;;5051379;28;20344;-57
2023/04/21 08:24:26;;;;;;;9.20;7.57;;;18.00;99.90;;;;;;5050949;28;20192;-57
2023/04/21 08:26:52;;;;;;;12.63;8.10;;;17.90;99.90;;;;;;5049359;28;20188;-56
2023/04/21 08:29:18;;;;;;;13.53;7.00;;;18.10;99.90;;;;;;5047241;28;20338;-57
2023/04/21 08:31:43;;;;;;;8.73;7.00;;;18.20;99.90;;;;;;5050338;28;20192;-57
2023/04/21 08:34:09;;;;;;;8.40;6.33;;;18.40;99.90;;;;;;5049590;28;20208;-57
2023/04/21 08:36:35;;;;;;;10.00;6.13;;;18.50;99.90;;;;;;5046391;28;20189;-57
2023/04/21 08:39:00;;;;;;;6.43;5.70;;;18.70;99.90;;;;;;5044637;28;20191;-56
2023/04/21 08:41:26;;;;;;;8.00;4.93;;;19.10;99.90;;;;;;5049267;28;20183;-57
2023/04/21 08:43:52;;;;;;;7.90;4.83;;;19.20;99.90;;;;;;5046251;28;20239;-57
2023/04/21 08:46:18;;;;;;;7.97;4.00;;;19.40;99.90;;;;;;5049420;28;20475;-58
2023/04/21 08:48:45;;;;;;;8.30;4.40;;;19.30;99.90;;;;;;5041518;28;20196;-56
2023/04/21 08:51:16;;;;;;;7.20;4.00;;;19.30;99.90;;;;;;5041782;28;20821;-57
2023/04/21 08:53:43;;;;;;;6.00;3.77;;;19.40;99.90;;;;;;5045363;28;20452;-56
2023/04/21 08:56:09;;;;;;;12.90;4.30;;;19.50;99.90;;;;;;5047777;28;20818;-57
2023/04/21 08:58:34;;;;;;;6.90;4.00;;;19.50;99.90;;;;;;5039404;28;20426;-58
2023/04/21 09:01:00;;;;;;;13.90;4.50;;;19.50;99.90;;;;;;5033998;28;20192;-57
2023/04/21 09:03:27;;;;;;;6.10;4.03;;;19.60;99.90;;;;;;5036597;28;20598;-59
2023/04/21 09:06:09;;;;;;;7.03;4.13;;;19.70;99.90;;;;;;5044589;28;20820;-57
2023/04/21 09:08:40;;;;;;;6.80;3.70;;;19.90;99.90;;;;;;5047039;28;20967;-58
2023/04/21 09:11:06;;;;;;;4.87;3.63;;;19.90;99.90;;;;;;5048694;28;20584;-58
2023/04/21 09:13:36;;;;;;;5.73;4.20;;;20.10;99.90;;;;;;5048882;28;20500;-58
2023/04/21 09:16:04;;;;;;;8.83;4.27;;;20.10;99.90;;;;;;5039645;28;20185;-57
2023/04/21 09:18:35;;;;;;;9.33;4.10;;;20.10;99.90;;;;;;5053950;28;20417;-57
2023/04/21 09:21:10;;;;;;;9.70;4.20;;;20.30;99.90;;;;;;5055965;28;20437;-57
2023/04/21 09:23:43;;;;;;;6.27;3.70;;;20.40;99.90;;;;;;5049059;28;20510;-58
2023/04/21 09:26:09;;;;;;;8.93;4.00;;;20.50;99.90;;;;;;5048474;28;20805;-58
2023/04/21 09:28:35;;;;;;;6.20;4.27;;;20.70;99.90;;;;;;5047840;28;20426;-58
2023/04/21 09:31:01;;;;;;;7.30;4.00;;;20.90;99.90;;;;;;5047082;28;20487;-58
2023/04/21 09:33:27;;;;;;;8.53;3.63;;;21.00;99.90;;;;;;5050574;28;20441;-57
2023/04/21 09:35:52;;;;;;;7.80;4.10;;;20.90;99.90;;;;;;5037921;28;20196;-58
2023/04/21 09:38:21;;;;;;;5.20;3.80;;;21.00;99.90;;;;;;5048955;28;20492;-58
2023/04/21 09:40:58;;;;;;;6.63;4.20;;;21.10;99.90;;;;;;5046920;28;20250;-57
2023/04/21 09:43:24;;;;;;;6.43;4.80;;;21.20;99.90;;;;;;5044842;28;20478;-58
2023/04/21 09:45:50;;;;;;;11.23;4.10;;;21.40;99.90;;;;;;5041008;28;20870;-58
2023/04/21 09:48:17;;;;;;;5.87;3.83;;;21.50;99.90;;;;;;5037051;28;20429;-58
2023/04/21 09:50:45;;;;;;;13.17;4.43;;;21.60;99.90;;;;;;5043597;28;20430;-57
2023/04/21 09:53:15;;;;;;;9.93;4.30;;;21.50;99.90;;;;;;5047057;28;20453;-58
2023/04/21 09:55:42;;;;;;;5.23;3.90;;;21.10;99.90;;;;;;5044160;28;20501;-57
2023/04/21 09:58:11;;;;;;;8.73;3.50;;;21.10;99.90;;;;;;5044728;28;21260;-57
2023/04/21 10:00:38;;;;;;;5.57;3.67;;;21.30;99.90;;;;;;5044841;28;20422;-57
2023/04/21 10:03:09;;;;;;;6.90;3.97;;;21.20;99.90;;;;;;5047014;28;20973;-58
2023/04/21 10:05:35;;;;;;;5.73;3.87;;;21.20;99.90;;;;;;5044343;28;20471;-57
2023/04/21 10:08:01;;;;;;;8.70;4.27;;;21.30;99.90;;;;;;5047499;28;20421;-58
2023/04/21 10:10:30;;;;;;;4.87;4.10;;;21.50;99.90;;;;;;5043004;28;20425;-58
2023/04/21 10:12:57;;;;;;;9.00;4.03;;;21.70;99.90;;;;;;5044687;28;20192;-57
2023/04/21 10:15:30;;;;;;;7.80;3.30;;;21.90;99.90;;;;;;5046585;28;20442;-57
2023/04/21 10:18:19;;;;;;;3.60;2.63;;;22.00;99.90;;;;;;5041695;28;20439;-57
2023/04/21 10:21:09;;;;;;;9.83;3.70;;;21.90;99.90;;;;;;5044852;28;20847;-57
2023/04/21 10:23:46;;;;;;;9.40;3.60;;;22.10;99.90;;;;;;5044675;28;20432;-56
2023/04/21 10:26:16;;;;;;;8.60;3.30;;;22.10;99.90;;;;;;5045747;28;20454;-57
2023/04/21 10:28:44;;;;;;;7.03;3.10;;;22.20;99.90;;;;;;5038495;28;20421;-57
2023/04/21 10:31:18;;;;;;;6.23;3.10;;;22.20;99.90;;;;;;5045395;28;20971;-57
2023/04/21 10:34:15;;;;;;;8.20;3.30;;;22.20;99.90;;;;;;5037670;28;20452;-57
2023/04/21 10:36:43;;;;;;;6.57;2.93;;;22.30;99.90;;;;;;5046171;28;20450;-58
2023/04/21 10:39:14;;;;;;;7.00;2.43;;;22.30;99.90;;;;;;5048786;28;20486;-57
2023/04/21 10:41:42;;;;;;;7.27;3.03;;;22.30;99.90;;;;;;5045460;28;20446;-58
2023/04/21 10:44:12;;;;;;;7.00;3.07;;;22.20;99.90;;;;;;5046267;28;20425;-56
2023/04/21 10:46:38;;;;;;;6.37;3.07;;;22.30;99.90;;;;;;5045293;28;20868;-58
2023/04/21 10:49:36;;;;;;;5.70;2.87;;;22.40;99.90;;;;;;5039845;28;20421;-57
2023/04/21 10:52:04;;;;;;;4.60;2.80;;;22.40;99.90;;;;;;5042607;28;20265;-58
2023/04/21 10:54:40;;;;;;;7.43;3.27;;;22.40;99.90;;;;;;5045353;28;20468;-57
2023/04/21 10:57:07;;;;;;;5.23;3.00;;;22.40;99.90;;;;;;5045800;28;20479;-58
2023/04/21 10:59:34;;;;;;;11.97;3.43;;;22.50;99.90;;;;;;5047075;28;20457;-57
2023/04/21 11:02:20;;;;;;;6.47;2.90;;;22.70;99.90;;;;;;5045749;28;20426;-59
2023/04/21 11:04:50;;;;;;;8.03;3.43;;;22.80;99.90;;;;;;5040756;28;20960;-57
2023/04/21 11:07:24;;;;;;;5.80;2.73;;;23.10;99.90;;;;;;5042447;28;20598;-59
2023/04/21 11:10:19;;;;;;;6.93;2.90;;;23.00;99.90;;;;;;5046212;28;20442;-58
2023/04/21 11:12:45;;;;;;;3.70;2.40;;;22.90;99.90;;;;;;5043512;28;20427;-57
2023/04/21 11:15:13;;;;;;;5.30;2.20;;;22.90;99.90;;;;;;5047263;28;20934;-59
2023/04/21 11:17:41;;;;;;;6.53;2.53;;;22.80;99.90;;;;;;5037121;28;20216;-58
2023/04/21 11:20:08;;;;;;;10.10;3.40;;;23.00;99.90;;;;;;5048815;28;20443;-57
2023/04/21 11:22:35;;;;;;;7.70;3.20;;;23.20;99.90;;;;;;5045802;28;20446;-57
2023/04/21 11:25:01;;;;;;;7.40;2.70;;;23.30;99.90;;;;;;5048812;28;21074;-57
2023/04/21 11:27:29;;;;;;;6.93;3.07;;;23.40;99.90;;;;;;5049225;28;20485;-57
2023/04/21 11:29:56;;;;;;;4.80;3.10;;;23.50;99.90;;;;;;5050750;28;20447;-59
2023/04/21 11:32:22;;;;;;;11.20;3.10;;;23.60;99.90;;;;;;5044423;28;20455;-58
2023/04/21 11:34:48;;;;;;;5.20;2.97;;;23.60;99.90;;;;;;5047982;28;20521;-58
2023/04/21 11:37:16;;;;;;;7.30;3.10;;;23.50;99.90;;;;;;5042760;28;20454;-57
2023/04/21 11:39:42;;;;;;;7.23;3.73;;;23.60;99.90;;;;;;5044905;28;23503;-58
2023/04/21 11:42:09;;;;;;;6.20;3.23;;;23.80;99.90;;;;;;5049337;28;20442;-57
2023/04/21 11:44:42;;;;;;;5.90;2.93;;;23.90;99.90;;;;;;5049429;28;20429;-58
2023/04/21 11:47:19;;;;;;;8.70;3.30;;;23.90;99.90;;;;;;5049129;28;20459;-57
2023/04/21 11:49:58;;;;;;;7.27;2.90;;;23.80;99.90;;;;;;5050182;28;20449;-57
2023/04/21 11:52:31;;;;;;;6.30;3.37;;;23.40;99.90;;;;;;5051528;28;20421;-57
2023/04/21 11:54:58;;;;;;;6.03;3.40;;;23.20;99.90;;;;;;5048976;28;20523;-56
2023/04/21 11:57:26;;;;;;;8.07;2.93;;;23.20;99.90;;;;;;5045344;28;20517;-60
2023/04/21 11:59:52;;;;;;;4.67;3.20;;;23.00;99.90;;;;;;5049964;28;20463;-58
2023/04/21 12:02:26;;;;;;;8.80;3.20;;;22.90;99.90;;;;;;5047322;28;20422;-58
2023/04/21 12:05:02;;;;;;;6.50;3.00;;;22.90;99.90;;;;;;5054136;28;20902;-58
2023/04/21 12:07:31;;;;;;;9.27;3.63;;;22.90;99.90;;;;;;5042441;28;20440;-59
2023/04/21 12:09:58;;;;;;;6.93;3.60;;;23.00;99.90;;;;;;5049454;28;20418;-59
2023/04/21 12:12:24;;;;;;;7.73;3.03;;;22.70;99.90;;;;;;5049268;28;20451;-61
2023/04/21 12:14:50;;;;;;;12.20;3.23;;;22.70;99.90;;;;;;5050134;28;20460;-60
2023/04/21 12:17:16;;;;;;;5.30;3.17;;;22.90;99.90;;;;;;5043668;28;20480;-59
2023/04/21 12:19:42;;;;;;;13.30;3.67;;;22.90;99.90;;;;;;5047554;28;20444;-58
2023/04/21 12:22:10;;;;;;;8.87;3.40;;;22.60;99.90;;;;;;5051329;28;20752;-58
2023/04/21 12:24:36;;;;;;;6.90;3.27;;;22.40;99.90;;;;;;5045286;28;20192;-58
2023/04/21 12:27:02;;;;;;;4.93;3.40;;;22.50;99.90;;;;;;5049389;28;20919;-58
2023/04/21 12:29:28;;;;;;;5.00;3.40;;;22.70;99.90;;;;;;5043127;28;20436;-58
2023/04/21 12:31:54;;;;;;;4.80;3.50;;;22.80;99.90;;;;;;5048969;28;20705;-59
2023/04/21 12:34:19;;;;;;;3.27;2.97;;;22.80;99.90;;;;;;5042151;28;20441;-60
2023/04/21 12:36:45;;;;;;;5.03;3.20;;;22.90;99.90;;;;;;5046156;28;20216;-58
2023/04/21 12:39:12;;;;;;;8.90;3.63;;;22.90;99.90;;;;;;5050452;28;20203;-58
2023/04/21 12:41:38;;;;;;;7.37;3.23;;;22.90;99.90;;;;;;5051564;28;20193;-58
2023/04/21 12:44:03;;;;;;;4.70;2.50;;;23.00;99.90;;;;;;5050906;28;20797;-58
2023/04/21 12:46:29;;;;;;;16.03;4.57;;;22.90;99.90;;;;;;5050426;28;20418;-59